sensor_id;sensor_type;location;lat;lon;timestamp;P1;durP1;ratioP1;P2;durP2;ratioP2
9160;SDS011;4615;51.340;8.288;2022-10-17T00:01:00;6.90;;;4.77;;
9160;SDS011;4615;51.340;8.288;2022-10-17T00:03:26;4.97;;;4.57;;
9160;SDS011;4615;51.340;8.288;2022-10-17T00:05:53;5.70;;;4.60;;
9160;SDS011;4615;51.340;8.288;2022-10-17T00:08:19;5.30;;;4.23;;
9160;SDS011;4615;51.340;8.288;2022-10-17T00:10:55;8.70;;;4.83;;
9160;SDS011;4615;51.340;8.288;2022-10-17T00:13:22;5.20;;;4.50;;
9160;SDS011;4615;51.340;8.288;2022-10-17T00:15:49;7.30;;;4.77;;
9160;SDS011;4615;51.340;8.288;2022-10-17T00:18:15;7.63;;;4.20;;
9160;SDS011;4615;51.340;8.288;2022-10-17T00:20:42;8.07;;;4.70;;
9160;SDS011;4615;51.340;8.288;2022-10-17T00:23:08;9.77;;;6.80;;
9160;SDS011;4615;51.340;8.288;2022-10-17T00:25:34;13.63;;;9.30;;
9160;SDS011;4615;51.340;8.288;2022-10-17T00:28:06;11.53;;;8.07;;
9160;SDS011;4615;51.340;8.288;2022-10-17T00:30:33;10.63;;;6.30;;
9160;SDS011;4615;51.340;8.288;2022-10-17T00:32:59;9.53;;;5.33;;
9160;SDS011;4615;51.340;8.288;2022-10-17T00:35:26;8.47;;;6.80;;
9160;SDS011;4615;51.340;8.288;2022-10-17T00:37:52;12.03;;;6.90;;
9160;SDS011;4615;51.340;8.288;2022-10-17T00:40:19;8.17;;;6.63;;
9160;SDS011;4615;51.340;8.288;2022-10-17T00:42:45;5.83;;;5.33;;
9160;SDS011;4615;51.340;8.288;2022-10-17T00:45:14;9.07;;;5.83;;
9160;SDS011;4615;51.340;8.288;2022-10-17T00:47:41;8.33;;;6.40;;
9160;SDS011;4615;51.340;8.288;2022-10-17T00:50:09;6.27;;;5.37;;
9160;SDS011;4615;51.340;8.288;2022-10-17T00:52:35;8.13;;;5.40;;
9160;SDS011;4615;51.340;8.288;2022-10-17T00:55:03;8.93;;;6.20;;
9160;SDS011;4615;51.340;8.288;2022-10-17T00:57:33;8.63;;;6.80;;
9160;SDS011;4615;51.340;8.288;2022-10-17T01:00:00;13.37;;;7.53;;
9160;SDS011;4615;51.340;8.288;2022-10-17T01:02:29;10.23;;;6.73;;
9160;SDS011;4615;51.340;8.288;2022-10-17T01:04:55;6.07;;;5.47;;
9160;SDS011;4615;51.340;8.288;2022-10-17T01:07:23;7.43;;;5.43;;
9160;SDS011;4615;51.340;8.288;2022-10-17T01:09:50;10.87;;;5.87;;
9160;SDS011;4615;51.340;8.288;2022-10-17T01:12:18;5.77;;;5.27;;
9160;SDS011;4615;51.340;8.288;2022-10-17T01:14:48;8.60;;;5.90;;
9160;SDS011;4615;51.340;8.288;2022-10-17T01:17:17;10.47;;;5.97;;
9160;SDS011;4615;51.340;8.288;2022-10-17T01:19:58;8.50;;;5.70;;
9160;SDS011;4615;51.340;8.288;2022-10-17T01:22:30;7.07;;;5.50;;
9160;SDS011;4615;51.340;8.288;2022-10-17T01:25:10;7.07;;;5.10;;
9160;SDS011;4615;51.340;8.288;2022-10-17T01:27:51;5.40;;;4.50;;
9160;SDS011;4615;51.340;8.288;2022-10-17T01:33:08;6.43;;;4.13;;
9160;SDS011;4615;51.340;8.288;2022-10-17T01:35:36;5.40;;;4.90;;
9160;SDS011;4615;51.340;8.288;2022-10-17T01:38:05;6.90;;;5.40;;
9160;SDS011;4615;51.340;8.288;2022-10-17T01:40:34;7.20;;;5.23;;
9160;SDS011;4615;51.340;8.288;2022-10-17T01:43:02;7.67;;;5.50;;
9160;SDS011;4615;51.340;8.288;2022-10-17T01:45:31;6.37;;;4.67;;
9160;SDS011;4615;51.340;8.288;2022-10-17T01:47:59;6.53;;;4.40;;
9160;SDS011;4615;51.340;8.288;2022-10-17T01:50:29;5.57;;;4.60;;
9160;SDS011;4615;51.340;8.288;2022-10-17T01:52:58;4.93;;;4.07;;
9160;SDS011;4615;51.340;8.288;2022-10-17T01:55:27;7.33;;;4.33;;
9160;SDS011;4615;51.340;8.288;2022-10-17T01:57:56;7.33;;;5.00;;
9160;SDS011;4615;51.340;8.288;2022-10-17T02:00:26;10.30;;;5.63;;
9160;SDS011;4615;51.340;8.288;2022-10-17T02:02:53;9.67;;;5.93;;
9160;SDS011;4615;51.340;8.288;2022-10-17T02:05:23;5.90;;;4.97;;
9160;SDS011;4615;51.340;8.288;2022-10-17T02:07:51;5.83;;;4.67;;
9160;SDS011;4615;51.340;8.288;2022-10-17T02:10:19;5.33;;;4.17;;
9160;SDS011;4615;51.340;8.288;2022-10-17T02:12:48;5.37;;;4.40;;
9160;SDS011;4615;51.340;8.288;2022-10-17T02:15:27;7.30;;;4.97;;
9160;SDS011;4615;51.340;8.288;2022-10-17T02:18:01;10.00;;;5.40;;
9160;SDS011;4615;51.340;8.288;2022-10-17T02:20:32;10.63;;;7.13;;
9160;SDS011;4615;51.340;8.288;2022-10-17T02:23:05;10.80;;;7.10;;
9160;SDS011;4615;51.340;8.288;2022-10-17T02:25:34;13.83;;;8.63;;
9160;SDS011;4615;51.340;8.288;2022-10-17T02:28:05;11.33;;;7.67;;
9160;SDS011;4615;51.340;8.288;2022-10-17T02:30:35;13.53;;;7.03;;
9160;SDS011;4615;51.340;8.288;2022-10-17T02:33:04;7.87;;;6.13;;
9160;SDS011;4615;51.340;8.288;2022-10-17T02:35:33;9.73;;;6.57;;
9160;SDS011;4615;51.340;8.288;2022-10-17T02:38:02;8.50;;;5.70;;
9160;SDS011;4615;51.340;8.288;2022-10-17T02:40:30;12.57;;;6.13;;
9160;SDS011;4615;51.340;8.288;2022-10-17T02:42:57;10.47;;;5.57;;
9160;SDS011;4615;51.340;8.288;2022-10-17T02:45:24;9.30;;;5.40;;
9160;SDS011;4615;51.340;8.288;2022-10-17T02:47:53;10.07;;;5.07;;
9160;SDS011;4615;51.340;8.288;2022-10-17T02:50:21;6.37;;;5.40;;
9160;SDS011;4615;51.340;8.288;2022-10-17T02:52:51;5.53;;;4.80;;
9160;SDS011;4615;51.340;8.288;2022-10-17T02:55:22;10.13;;;4.83;;
9160;SDS011;4615;51.340;8.288;2022-10-17T02:57:51;10.57;;;5.10;;
9160;SDS011;4615;51.340;8.288;2022-10-17T03:00:18;11.67;;;5.23;;
9160;SDS011;4615;51.340;8.288;2022-10-17T03:02:45;6.60;;;4.13;;
9160;SDS011;4615;51.340;8.288;2022-10-17T03:05:13;5.50;;;4.60;;
9160;SDS011;4615;51.340;8.288;2022-10-17T03:07:39;5.43;;;4.20;;
9160;SDS011;4615;51.340;8.288;2022-10-17T03:10:06;7.97;;;4.27;;
9160;SDS011;4615;51.340;8.288;2022-10-17T03:12:34;6.17;;;3.90;;
9160;SDS011;4615;51.340;8.288;2022-10-17T03:15:00;6.40;;;4.50;;
9160;SDS011;4615;51.340;8.288;2022-10-17T03:17:26;5.20;;;4.70;;
9160;SDS011;4615;51.340;8.288;2022-10-17T03:19:53;6.80;;;4.67;;
9160;SDS011;4615;51.340;8.288;2022-10-17T03:22:19;5.47;;;4.30;;
9160;SDS011;4615;51.340;8.288;2022-10-17T03:24:46;5.67;;;4.70;;
9160;SDS011;4615;51.340;8.288;2022-10-17T03:27:12;4.13;;;3.80;;
9160;SDS011;4615;51.340;8.288;2022-10-17T03:29:40;7.23;;;4.50;;
9160;SDS011;4615;51.340;8.288;2022-10-17T03:32:06;4.70;;;4.30;;
9160;SDS011;4615;51.340;8.288;2022-10-17T03:34:33;7.70;;;4.67;;
9160;SDS011;4615;51.340;8.288;2022-10-17T03:36:59;8.03;;;4.40;;
9160;SDS011;4615;51.340;8.288;2022-10-17T03:39:25;6.10;;;4.53;;
9160;SDS011;4615;51.340;8.288;2022-10-17T03:41:52;6.50;;;4.83;;
9160;SDS011;4615;51.340;8.288;2022-10-17T03:44:18;6.43;;;4.67;;
9160;SDS011;4615;51.340;8.288;2022-10-17T03:46:46;10.93;;;4.90;;
9160;SDS011;4615;51.340;8.288;2022-10-17T03:49:12;9.97;;;5.50;;
9160;SDS011;4615;51.340;8.288;2022-10-17T03:51:39;6.80;;;5.33;;
9160;SDS011;4615;51.340;8.288;2022-10-17T03:54:05;6.70;;;5.70;;
9160;SDS011;4615;51.340;8.288;2022-10-17T03:56:32;7.63;;;5.67;;
9160;SDS011;4615;51.340;8.288;2022-10-17T03:58:58;5.63;;;5.03;;
9160;SDS011;4615;51.340;8.288;2022-10-17T04:01:24;8.20;;;6.03;;
9160;SDS011;4615;51.340;8.288;2022-10-17T04:03:53;9.43;;;5.30;;
9160;SDS011;4615;51.340;8.288;2022-10-17T04:06:20;5.90;;;5.30;;
9160;SDS011;4615;51.340;8.288;2022-10-17T04:08:46;7.00;;;5.53;;
9160;SDS011;4615;51.340;8.288;2022-10-17T04:11:13;9.13;;;5.60;;
9160;SDS011;4615;51.340;8.288;2022-10-17T04:13:40;8.60;;;5.20;;
9160;SDS011;4615;51.340;8.288;2022-10-17T04:16:07;10.50;;;5.80;;
9160;SDS011;4615;51.340;8.288;2022-10-17T04:18:35;8.27;;;5.53;;
9160;SDS011;4615;51.340;8.288;2022-10-17T04:21:03;9.93;;;5.57;;
9160;SDS011;4615;51.340;8.288;2022-10-17T04:23:30;7.17;;;5.90;;
9160;SDS011;4615;51.340;8.288;2022-10-17T04:25:57;7.40;;;6.13;;
9160;SDS011;4615;51.340;8.288;2022-10-17T04:28:23;9.37;;;6.93;;
9160;SDS011;4615;51.340;8.288;2022-10-17T04:30:54;9.57;;;6.37;;
9160;SDS011;4615;51.340;8.288;2022-10-17T04:33:20;14.60;;;7.93;;
9160;SDS011;4615;51.340;8.288;2022-10-17T04:35:53;9.60;;;7.17;;
9160;SDS011;4615;51.340;8.288;2022-10-17T04:38:21;8.00;;;6.40;;
9160;SDS011;4615;51.340;8.288;2022-10-17T04:40:47;8.40;;;7.33;;
9160;SDS011;4615;51.340;8.288;2022-10-17T04:43:14;11.60;;;7.40;;
9160;SDS011;4615;51.340;8.288;2022-10-17T04:45:40;10.73;;;6.97;;
9160;SDS011;4615;51.340;8.288;2022-10-17T04:48:06;10.33;;;6.97;;
9160;SDS011;4615;51.340;8.288;2022-10-17T04:50:33;9.90;;;7.83;;
9160;SDS011;4615;51.340;8.288;2022-10-17T04:52:59;8.60;;;7.60;;
9160;SDS011;4615;51.340;8.288;2022-10-17T04:55:27;9.13;;;7.90;;
9160;SDS011;4615;51.340;8.288;2022-10-17T04:57:53;12.00;;;8.13;;
9160;SDS011;4615;51.340;8.288;2022-10-17T05:00:20;10.73;;;7.43;;
9160;SDS011;4615;51.340;8.288;2022-10-17T05:02:46;9.13;;;7.33;;
9160;SDS011;4615;51.340;8.288;2022-10-17T05:05:12;11.27;;;7.40;;
9160;SDS011;4615;51.340;8.288;2022-10-17T05:07:39;17.73;;;8.17;;
9160;SDS011;4615;51.340;8.288;2022-10-17T05:10:06;12.00;;;7.40;;
9160;SDS011;4615;51.340;8.288;2022-10-17T05:12:34;15.10;;;7.97;;
9160;SDS011;4615;51.340;8.288;2022-10-17T05:15:00;11.17;;;8.57;;
9160;SDS011;4615;51.340;8.288;2022-10-17T05:17:27;8.20;;;7.40;;
9160;SDS011;4615;51.340;8.288;2022-10-17T05:19:53;12.40;;;8.00;;
9160;SDS011;4615;51.340;8.288;2022-10-17T05:22:19;13.50;;;9.80;;
9160;SDS011;4615;51.340;8.288;2022-10-17T05:24:46;22.33;;;12.43;;
9160;SDS011;4615;51.340;8.288;2022-10-17T05:27:12;22.30;;;16.60;;
9160;SDS011;4615;51.340;8.288;2022-10-17T05:29:40;16.93;;;12.43;;
9160;SDS011;4615;51.340;8.288;2022-10-17T05:32:06;16.63;;;12.57;;
9160;SDS011;4615;51.340;8.288;2022-10-17T05:34:33;16.57;;;11.50;;
9160;SDS011;4615;51.340;8.288;2022-10-17T05:36:59;11.87;;;10.37;;
9160;SDS011;4615;51.340;8.288;2022-10-17T05:39:25;14.90;;;10.13;;
9160;SDS011;4615;51.340;8.288;2022-10-17T05:41:52;15.93;;;9.30;;
9160;SDS011;4615;51.340;8.288;2022-10-17T05:44:18;15.00;;;11.13;;
9160;SDS011;4615;51.340;8.288;2022-10-17T05:46:48;11.87;;;10.00;;
9160;SDS011;4615;51.340;8.288;2022-10-17T05:49:14;13.57;;;11.67;;
9160;SDS011;4615;51.340;8.288;2022-10-17T05:51:41;11.57;;;10.37;;
9160;SDS011;4615;51.340;8.288;2022-10-17T05:54:07;15.50;;;12.77;;
9160;SDS011;4615;51.340;8.288;2022-10-17T05:56:34;16.60;;;14.50;;
9160;SDS011;4615;51.340;8.288;2022-10-17T05:59:00;17.23;;;14.07;;
9160;SDS011;4615;51.340;8.288;2022-10-17T06:01:27;16.93;;;13.00;;
9160;SDS011;4615;51.340;8.288;2022-10-17T06:03:55;15.73;;;12.30;;
9160;SDS011;4615;51.340;8.288;2022-10-17T06:06:21;22.60;;;19.90;;
9160;SDS011;4615;51.340;8.288;2022-10-17T06:08:48;24.03;;;21.17;;
9160;SDS011;4615;51.340;8.288;2022-10-17T06:11:14;26.03;;;20.40;;
9160;SDS011;4615;51.340;8.288;2022-10-17T06:13:40;17.77;;;15.60;;
9160;SDS011;4615;51.340;8.288;2022-10-17T06:16:07;14.70;;;13.20;;
9160;SDS011;4615;51.340;8.288;2022-10-17T06:18:33;11.00;;;9.90;;
9160;SDS011;4615;51.340;8.288;2022-10-17T06:21:02;13.70;;;8.60;;
9160;SDS011;4615;51.340;8.288;2022-10-17T06:23:29;11.27;;;9.70;;
9160;SDS011;4615;51.340;8.288;2022-10-17T06:25:57;10.80;;;7.37;;
9160;SDS011;4615;51.340;8.288;2022-10-17T06:28:23;12.97;;;11.57;;
9160;SDS011;4615;51.340;8.288;2022-10-17T06:30:50;16.33;;;13.73;;
9160;SDS011;4615;51.340;8.288;2022-10-17T06:33:16;13.50;;;11.83;;
9160;SDS011;4615;51.340;8.288;2022-10-17T06:35:42;14.93;;;10.93;;
9160;SDS011;4615;51.340;8.288;2022-10-17T06:38:10;12.10;;;8.40;;
9160;SDS011;4615;51.340;8.288;2022-10-17T06:40:37;8.67;;;7.77;;
9160;SDS011;4615;51.340;8.288;2022-10-17T06:43:03;7.07;;;6.30;;
9160;SDS011;4615;51.340;8.288;2022-10-17T06:45:29;8.20;;;5.90;;
9160;SDS011;4615;51.340;8.288;2022-10-17T06:47:56;11.20;;;7.23;;
9160;SDS011;4615;51.340;8.288;2022-10-17T06:50:22;8.63;;;6.37;;
9160;SDS011;4615;51.340;8.288;2022-10-17T06:52:49;8.97;;;6.80;;
9160;SDS011;4615;51.340;8.288;2022-10-17T06:55:17;6.57;;;5.83;;
9160;SDS011;4615;51.340;8.288;2022-10-17T06:57:43;6.03;;;5.43;;
9160;SDS011;4615;51.340;8.288;2022-10-17T07:00:10;7.20;;;4.67;;
9160;SDS011;4615;51.340;8.288;2022-10-17T07:02:37;5.77;;;4.87;;
9160;SDS011;4615;51.340;8.288;2022-10-17T07:05:03;5.40;;;4.90;;
9160;SDS011;4615;51.340;8.288;2022-10-17T07:07:30;9.67;;;4.87;;
9160;SDS011;4615;51.340;8.288;2022-10-17T07:09:57;5.17;;;4.40;;
9160;SDS011;4615;51.340;8.288;2022-10-17T07:12:25;6.70;;;4.53;;
9160;SDS011;4615;51.340;8.288;2022-10-17T07:14:51;6.03;;;5.00;;
9160;SDS011;4615;51.340;8.288;2022-10-17T07:17:18;5.10;;;4.20;;
9160;SDS011;4615;51.340;8.288;2022-10-17T07:19:44;6.37;;;4.37;;
9160;SDS011;4615;51.340;8.288;2022-10-17T07:22:11;6.67;;;4.37;;
9160;SDS011;4615;51.340;8.288;2022-10-17T07:24:37;13.50;;;7.00;;
9160;SDS011;4615;51.340;8.288;2022-10-17T07:27:04;7.50;;;6.13;;
9160;SDS011;4615;51.340;8.288;2022-10-17T07:29:32;5.90;;;5.27;;
9160;SDS011;4615;51.340;8.288;2022-10-17T07:31:58;6.03;;;5.43;;
9160;SDS011;4615;51.340;8.288;2022-10-17T07:34:24;8.63;;;5.23;;
9160;SDS011;4615;51.340;8.288;2022-10-17T07:36:54;5.30;;;4.80;;
9160;SDS011;4615;51.340;8.288;2022-10-17T07:39:21;6.93;;;6.20;;
9160;SDS011;4615;51.340;8.288;2022-10-17T07:41:47;10.73;;;6.27;;
9160;SDS011;4615;51.340;8.288;2022-10-17T07:44:14;5.37;;;4.67;;
9160;SDS011;4615;51.340;8.288;2022-10-17T07:46:42;8.00;;;5.20;;
9160;SDS011;4615;51.340;8.288;2022-10-17T07:49:09;6.20;;;5.10;;
9160;SDS011;4615;51.340;8.288;2022-10-17T07:51:35;8.77;;;4.50;;
9160;SDS011;4615;51.340;8.288;2022-10-17T07:54:03;10.57;;;4.37;;
9160;SDS011;4615;51.340;8.288;2022-10-17T07:56:29;6.10;;;4.10;;
9160;SDS011;4615;51.340;8.288;2022-10-17T07:58:56;9.90;;;4.20;;
9160;SDS011;4615;51.340;8.288;2022-10-17T08:01:22;7.73;;;4.10;;
9160;SDS011;4615;51.340;8.288;2022-10-17T08:03:51;4.90;;;4.17;;
9160;SDS011;4615;51.340;8.288;2022-10-17T08:06:17;8.83;;;4.30;;
9160;SDS011;4615;51.340;8.288;2022-10-17T08:08:44;8.03;;;3.97;;
9160;SDS011;4615;51.340;8.288;2022-10-17T08:11:10;6.63;;;3.50;;
9160;SDS011;4615;51.340;8.288;2022-10-17T08:13:37;7.27;;;3.90;;
9160;SDS011;4615;51.340;8.288;2022-10-17T08:16:05;5.73;;;3.53;;
9160;SDS011;4615;51.340;8.288;2022-10-17T08:18:32;3.63;;;3.13;;
9160;SDS011;4615;51.340;8.288;2022-10-17T08:20:59;5.97;;;3.87;;
9160;SDS011;4615;51.340;8.288;2022-10-17T08:23:26;4.23;;;3.40;;
9160;SDS011;4615;51.340;8.288;2022-10-17T08:25:53;4.33;;;3.47;;
9160;SDS011;4615;51.340;8.288;2022-10-17T08:28:19;8.50;;;3.93;;
9160;SDS011;4615;51.340;8.288;2022-10-17T08:30:46;5.10;;;3.47;;
9160;SDS011;4615;51.340;8.288;2022-10-17T08:33:12;5.20;;;3.30;;
9160;SDS011;4615;51.340;8.288;2022-10-17T08:35:39;6.10;;;3.50;;
9160;SDS011;4615;51.340;8.288;2022-10-17T08:38:06;6.07;;;3.63;;
9160;SDS011;4615;51.340;8.288;2022-10-17T08:40:33;6.70;;;3.40;;
9160;SDS011;4615;51.340;8.288;2022-10-17T08:43:13;5.37;;;3.43;;
9160;SDS011;4615;51.340;8.288;2022-10-17T08:45:41;7.57;;;3.33;;
9160;SDS011;4615;51.340;8.288;2022-10-17T08:48:11;5.07;;;3.13;;
9160;SDS011;4615;51.340;8.288;2022-10-17T08:50:39;5.63;;;3.63;;
9160;SDS011;4615;51.340;8.288;2022-10-17T08:53:10;7.47;;;3.43;;
9160;SDS011;4615;51.340;8.288;2022-10-17T08:55:38;3.60;;;3.30;;
9160;SDS011;4615;51.340;8.288;2022-10-17T08:58:10;4.53;;;3.40;;
9160;SDS011;4615;51.340;8.288;2022-10-17T09:00:37;4.70;;;2.73;;
9160;SDS011;4615;51.340;8.288;2022-10-17T09:03:08;5.83;;;3.73;;
9160;SDS011;4615;51.340;8.288;2022-10-17T09:05:41;7.97;;;3.40;;
9160;SDS011;4615;51.340;8.288;2022-10-17T09:08:13;3.00;;;2.80;;
9160;SDS011;4615;51.340;8.288;2022-10-17T09:10:45;4.73;;;3.00;;
9160;SDS011;4615;51.340;8.288;2022-10-17T09:13:18;4.43;;;3.40;;
9160;SDS011;4615;51.340;8.288;2022-10-17T09:15:51;4.97;;;3.57;;
9160;SDS011;4615;51.340;8.288;2022-10-17T09:18:21;5.43;;;2.80;;
9160;SDS011;4615;51.340;8.288;2022-10-17T09:20:50;6.27;;;3.43;;
9160;SDS011;4615;51.340;8.288;2022-10-17T09:23:19;5.60;;;3.10;;
9160;SDS011;4615;51.340;8.288;2022-10-17T09:25:47;6.87;;;3.23;;
9160;SDS011;4615;51.340;8.288;2022-10-17T09:28:15;6.60;;;2.83;;
9160;SDS011;4615;51.340;8.288;2022-10-17T09:30:42;5.63;;;3.37;;
9160;SDS011;4615;51.340;8.288;2022-10-17T09:33:10;4.40;;;3.27;;
9160;SDS011;4615;51.340;8.288;2022-10-17T09:35:37;4.80;;;3.33;;
9160;SDS011;4615;51.340;8.288;2022-10-17T09:38:05;4.60;;;2.97;;
9160;SDS011;4615;51.340;8.288;2022-10-17T09:40:34;4.27;;;3.27;;
9160;SDS011;4615;51.340;8.288;2022-10-17T09:43:02;5.80;;;2.83;;
9160;SDS011;4615;51.340;8.288;2022-10-17T09:45:30;11.17;;;2.97;;
9160;SDS011;4615;51.340;8.288;2022-10-17T09:48:04;6.60;;;2.83;;
9160;SDS011;4615;51.340;8.288;2022-10-17T09:50:34;4.40;;;3.30;;
9160;SDS011;4615;51.340;8.288;2022-10-17T09:53:01;4.37;;;2.67;;
9160;SDS011;4615;51.340;8.288;2022-10-17T09:55:36;5.20;;;3.00;;
9160;SDS011;4615;51.340;8.288;2022-10-17T09:58:04;5.77;;;3.27;;
9160;SDS011;4615;51.340;8.288;2022-10-17T10:00:32;4.03;;;3.20;;
9160;SDS011;4615;51.340;8.288;2022-10-17T10:03:08;5.20;;;2.87;;
9160;SDS011;4615;51.340;8.288;2022-10-17T10:05:35;3.93;;;2.83;;
9160;SDS011;4615;51.340;8.288;2022-10-17T10:08:02;3.80;;;2.90;;
9160;SDS011;4615;51.340;8.288;2022-10-17T10:10:29;8.73;;;3.20;;
9160;SDS011;4615;51.340;8.288;2022-10-17T10:13:17;6.33;;;3.00;;
9160;SDS011;4615;51.340;8.288;2022-10-17T10:15:45;5.10;;;3.20;;
9160;SDS011;4615;51.340;8.288;2022-10-17T10:18:29;4.67;;;3.00;;
9160;SDS011;4615;51.340;8.288;2022-10-17T10:21:04;4.43;;;3.33;;
9160;SDS011;4615;51.340;8.288;2022-10-17T10:23:31;8.53;;;2.97;;
9160;SDS011;4615;51.340;8.288;2022-10-17T10:25:58;4.40;;;2.90;;
9160;SDS011;4615;51.340;8.288;2022-10-17T10:28:26;4.23;;;2.93;;
9160;SDS011;4615;51.340;8.288;2022-10-17T10:30:54;7.13;;;2.97;;
9160;SDS011;4615;51.340;8.288;2022-10-17T10:33:21;6.60;;;3.00;;
9160;SDS011;4615;51.340;8.288;2022-10-17T10:35:55;5.50;;;2.70;;
9160;SDS011;4615;51.340;8.288;2022-10-17T10:38:22;5.17;;;2.80;;
9160;SDS011;4615;51.340;8.288;2022-10-17T10:40:49;6.33;;;2.77;;
9160;SDS011;4615;51.340;8.288;2022-10-17T10:43:20;3.50;;;2.97;;
9160;SDS011;4615;51.340;8.288;2022-10-17T10:45:49;4.20;;;2.63;;
9160;SDS011;4615;51.340;8.288;2022-10-17T10:48:18;6.67;;;2.70;;
9160;SDS011;4615;51.340;8.288;2022-10-17T10:50:45;7.10;;;2.73;;
9160;SDS011;4615;51.340;8.288;2022-10-17T10:53:16;4.97;;;2.58;;
9160;SDS011;4615;51.340;8.288;2022-10-17T10:55:48;5.47;;;2.97;;
9160;SDS011;4615;51.340;8.288;2022-10-17T10:58:20;5.53;;;2.90;;
9160;SDS011;4615;51.340;8.288;2022-10-17T11:00:50;5.80;;;3.30;;
9160;SDS011;4615;51.340;8.288;2022-10-17T11:03:18;3.60;;;2.80;;
9160;SDS011;4615;51.340;8.288;2022-10-17T11:05:48;3.58;;;2.75;;
9160;SDS011;4615;51.340;8.288;2022-10-17T11:08:18;5.28;;;3.40;;
9160;SDS011;4615;51.340;8.288;2022-10-17T11:10:52;4.22;;;2.85;;
9160;SDS011;4615;51.340;8.288;2022-10-17T11:13:21;3.97;;;2.53;;
9160;SDS011;4615;51.340;8.288;2022-10-17T11:15:50;3.22;;;2.80;;
9160;SDS011;4615;51.340;8.288;2022-10-17T11:18:20;5.50;;;3.20;;
9160;SDS011;4615;51.340;8.288;2022-10-17T11:20:49;4.68;;;2.95;;
9160;SDS011;4615;51.340;8.288;2022-10-17T11:23:18;5.85;;;2.85;;
9160;SDS011;4615;51.340;8.288;2022-10-17T11:25:46;6.07;;;2.72;;
9160;SDS011;4615;51.340;8.288;2022-10-17T11:28:14;3.50;;;2.97;;
9160;SDS011;4615;51.340;8.288;2022-10-17T11:30:43;7.28;;;2.95;;
9160;SDS011;4615;51.340;8.288;2022-10-17T11:33:13;6.03;;;2.92;;
9160;SDS011;4615;51.340;8.288;2022-10-17T11:35:40;7.28;;;2.85;;
9160;SDS011;4615;51.340;8.288;2022-10-17T11:38:11;5.90;;;3.03;;
9160;SDS011;4615;51.340;8.288;2022-10-17T11:40:41;7.63;;;2.70;;
9160;SDS011;4615;51.340;8.288;2022-10-17T11:43:10;4.13;;;2.50;;
9160;SDS011;4615;51.340;8.288;2022-10-17T11:45:38;4.90;;;2.70;;
9160;SDS011;4615;51.340;8.288;2022-10-17T11:48:08;5.15;;;2.53;;
9160;SDS011;4615;51.340;8.288;2022-10-17T11:50:39;7.22;;;3.05;;
9160;SDS011;4615;51.340;8.288;2022-10-17T11:53:08;13.27;;;3.33;;
9160;SDS011;4615;51.340;8.288;2022-10-17T11:55:35;5.20;;;2.60;;
9160;SDS011;4615;51.340;8.288;2022-10-17T11:58:11;3.05;;;2.72;;
9160;SDS011;4615;51.340;8.288;2022-10-17T12:00:42;5.07;;;2.90;;
9160;SDS011;4615;51.340;8.288;2022-10-17T12:03:16;7.40;;;3.05;;
9160;SDS011;4615;51.340;8.288;2022-10-17T12:05:49;6.30;;;2.90;;
9160;SDS011;4615;51.340;8.288;2022-10-17T12:08:19;5.70;;;2.70;;
9160;SDS011;4615;51.340;8.288;2022-10-17T12:10:50;3.83;;;2.55;;
9160;SDS011;4615;51.340;8.288;2022-10-17T12:18:51;6.60;;;2.67;;
9160;SDS011;4615;51.340;8.288;2022-10-17T12:24:36;5.13;;;2.90;;
9160;SDS011;4615;51.340;8.288;2022-10-17T12:29:48;5.72;;;3.15;;
9160;SDS011;4615;51.340;8.288;2022-10-17T12:32:15;8.25;;;3.00;;
9160;SDS011;4615;51.340;8.288;2022-10-17T12:34:49;10.57;;;3.03;;
9160;SDS011;4615;51.340;8.288;2022-10-17T12:37:24;3.60;;;2.70;;
9160;SDS011;4615;51.340;8.288;2022-10-17T12:42:53;6.78;;;2.97;;
9160;SDS011;4615;51.340;8.288;2022-10-17T12:48:07;3.92;;;2.67;;
9160;SDS011;4615;51.340;8.288;2022-10-17T12:53:15;5.57;;;3.03;;
9160;SDS011;4615;51.340;8.288;2022-10-17T12:55:43;4.15;;;2.90;;
9160;SDS011;4615;51.340;8.288;2022-10-17T12:58:11;4.38;;;3.05;;
9160;SDS011;4615;51.340;8.288;2022-10-17T13:00:40;6.20;;;2.63;;
9160;SDS011;4615;51.340;8.288;2022-10-17T13:03:09;5.40;;;2.63;;
9160;SDS011;4615;51.340;8.288;2022-10-17T13:05:38;5.05;;;2.70;;
9160;SDS011;4615;51.340;8.288;2022-10-17T13:08:06;3.80;;;2.88;;
9160;SDS011;4615;51.340;8.288;2022-10-17T13:10:33;5.00;;;2.50;;
9160;SDS011;4615;51.340;8.288;2022-10-17T13:13:03;6.70;;;3.17;;
9160;SDS011;4615;51.340;8.288;2022-10-17T13:15:32;6.63;;;2.88;;
9160;SDS011;4615;51.340;8.288;2022-10-17T13:17:59;8.40;;;2.95;;
9160;SDS011;4615;51.340;8.288;2022-10-17T13:20:27;4.90;;;3.03;;
9160;SDS011;4615;51.340;8.288;2022-10-17T13:22:54;5.20;;;3.10;;
9160;SDS011;4615;51.340;8.288;2022-10-17T13:25:22;3.78;;;2.75;;
9160;SDS011;4615;51.340;8.288;2022-10-17T13:27:49;5.25;;;2.40;;
9160;SDS011;4615;51.340;8.288;2022-10-17T13:30:24;9.13;;;2.63;;
9160;SDS011;4615;51.340;8.288;2022-10-17T13:32:52;2.85;;;2.47;;
9160;SDS011;4615;51.340;8.288;2022-10-17T13:35:23;6.13;;;2.88;;
9160;SDS011;4615;51.340;8.288;2022-10-17T13:37:50;4.75;;;2.83;;
9160;SDS011;4615;51.340;8.288;2022-10-17T13:40:17;5.78;;;3.00;;
9160;SDS011;4615;51.340;8.288;2022-10-17T13:42:44;7.43;;;2.90;;
9160;SDS011;4615;51.340;8.288;2022-10-17T13:45:15;4.78;;;2.50;;
9160;SDS011;4615;51.340;8.288;2022-10-17T13:47:42;5.45;;;3.20;;
9160;SDS011;4615;51.340;8.288;2022-10-17T13:50:13;3.03;;;2.75;;
9160;SDS011;4615;51.340;8.288;2022-10-17T13:52:44;5.03;;;2.60;;
9160;SDS011;4615;51.340;8.288;2022-10-17T13:55:13;7.22;;;3.00;;
9160;SDS011;4615;51.340;8.288;2022-10-17T13:57:41;3.70;;;2.53;;
9160;SDS011;4615;51.340;8.288;2022-10-17T14:00:10;6.95;;;3.50;;
9160;SDS011;4615;51.340;8.288;2022-10-17T14:02:40;6.90;;;3.00;;
9160;SDS011;4615;51.340;8.288;2022-10-17T14:05:09;10.15;;;3.22;;
9160;SDS011;4615;51.340;8.288;2022-10-17T14:07:39;4.75;;;2.55;;
9160;SDS011;4615;51.340;8.288;2022-10-17T14:10:13;8.27;;;2.70;;
9160;SDS011;4615;51.340;8.288;2022-10-17T14:12:43;5.97;;;2.65;;
9160;SDS011;4615;51.340;8.288;2022-10-17T14:15:11;7.15;;;2.80;;
9160;SDS011;4615;51.340;8.288;2022-10-17T14:17:38;3.72;;;2.72;;
9160;SDS011;4615;51.340;8.288;2022-10-17T14:20:05;7.88;;;3.40;;
9160;SDS011;4615;51.340;8.288;2022-10-17T14:22:34;5.70;;;2.72;;
9160;SDS011;4615;51.340;8.288;2022-10-17T14:25:02;8.27;;;3.05;;
9160;SDS011;4615;51.340;8.288;2022-10-17T14:27:29;5.80;;;2.67;;
9160;SDS011;4615;51.340;8.288;2022-10-17T14:29:56;4.53;;;2.83;;
9160;SDS011;4615;51.340;8.288;2022-10-17T14:32:25;9.45;;;3.35;;
9160;SDS011;4615;51.340;8.288;2022-10-17T14:34:52;7.13;;;2.90;;
9160;SDS011;4615;51.340;8.288;2022-10-17T14:37:23;5.82;;;2.55;;
9160;SDS011;4615;51.340;8.288;2022-10-17T14:39:52;5.32;;;3.22;;
9160;SDS011;4615;51.340;8.288;2022-10-17T14:42:21;6.47;;;3.15;;
9160;SDS011;4615;51.340;8.288;2022-10-17T14:44:48;7.25;;;2.80;;
9160;SDS011;4615;51.340;8.288;2022-10-17T14:47:16;8.70;;;3.05;;
9160;SDS011;4615;51.340;8.288;2022-10-17T14:49:47;5.53;;;3.30;;
9160;SDS011;4615;51.340;8.288;2022-10-17T14:52:28;5.80;;;2.80;;
9160;SDS011;4615;51.340;8.288;2022-10-17T14:54:54;6.93;;;3.37;;
9160;SDS011;4615;51.340;8.288;2022-10-17T14:57:24;3.83;;;2.67;;
9160;SDS011;4615;51.340;8.288;2022-10-17T14:59:51;3.95;;;2.90;;
9160;SDS011;4615;51.340;8.288;2022-10-17T15:02:18;7.57;;;3.00;;
9160;SDS011;4615;51.340;8.288;2022-10-17T15:04:45;7.72;;;2.85;;
9160;SDS011;4615;51.340;8.288;2022-10-17T15:07:12;6.50;;;2.70;;
9160;SDS011;4615;51.340;8.288;2022-10-17T15:09:39;4.18;;;2.67;;
9160;SDS011;4615;51.340;8.288;2022-10-17T15:12:06;7.05;;;2.92;;
9160;SDS011;4615;51.340;8.288;2022-10-17T15:14:34;8.90;;;2.90;;
9160;SDS011;4615;51.340;8.288;2022-10-17T15:17:00;4.90;;;3.10;;
9160;SDS011;4615;51.340;8.288;2022-10-17T15:19:27;8.18;;;3.42;;
9160;SDS011;4615;51.340;8.288;2022-10-17T15:21:53;6.88;;;3.17;;
9160;SDS011;4615;51.340;8.288;2022-10-17T15:24:19;6.07;;;2.77;;
9160;SDS011;4615;51.340;8.288;2022-10-17T15:26:46;5.15;;;3.22;;
9160;SDS011;4615;51.340;8.288;2022-10-17T15:29:13;6.55;;;3.30;;
9160;SDS011;4615;51.340;8.288;2022-10-17T15:31:41;4.43;;;2.87;;
9160;SDS011;4615;51.340;8.288;2022-10-17T15:34:08;6.35;;;3.00;;
9160;SDS011;4615;51.340;8.288;2022-10-17T15:36:35;6.45;;;3.20;;
9160;SDS011;4615;51.340;8.288;2022-10-17T15:39:04;9.27;;;2.80;;
9160;SDS011;4615;51.340;8.288;2022-10-17T15:41:31;5.23;;;2.97;;